Terminal Aerodrome Forecast
Issued by NWS Caribou, ME

Home | Current Version | Previous Version | Text Only | Print | Product List | Glossary On
Versions: 1 2 3 4 5 6 7 8 9 10 11 12 13 14 15 16 17
000
FTUS41 KCAR 260131 AAA
TAFBGR
TAF AMD
KBGR 260131Z 2602/2624 16008KT 6SM -RA BKN008 OVC010
     FM260300 15010KT 1SM +RA BR SCT001 OVC003
     FM260500 16009KT 1SM +RA BR OVC002 WS020/15040KT
     FM261100 16008KT 1SM -RA BR OVC002
     FM261700 18006KT 5SM -RA OVC015=

USA.gov is the U.S. government's official web portal to all federal, state and local government web resources and services.